Flight Track Log - Related Links

Times and Time Zones

All times are in EDT time to prevent confusion due to time zone crossing. See the SKW5631 flight status page for this flight to view local times or setup timezone preferences in your user account.

Time Position Orientation Groundspeed Altitude Reporting Facility
EDT Latitude Longitude Course Direction KTS MPH feet Rate Location/Type
Sat 09:45:14 PM 37.6500 -122.4167 135° Southeast 164 189 2,700  Level Northern Cal TRACON
Sat 09:46:00 PM 37.4284 -122.3517 113° Southeast  Level FlightAware Approximate
Sat 09:46:08 PM 37.6667 -122.4833 288° West 229 264 4,700  Level Northern Cal TRACON
Sat 09:47:00 PM 37.3456 -122.2213 136° Southeast  Level FlightAware Approximate
Sat 09:47:14 PM 37.6167 -122.5500 227° Southwest 280 322 7,600  Level Northern Cal TRACON
Sat 09:48:00 PM 37.2576 -122.0948 130° Southeast  Level FlightAware Approximate
Sat 09:48:16 PM 37.5611 -122.4975 143° Southeast 287 330 10,400  Level Oakland Center
Sat 09:49:00 PM 37.1661 -121.9714 133° Southeast  Level FlightAware Approximate
Sat 09:49:17 PM 37.4961 -122.4264 139° Southeast 307 353 12,800  Level Oakland Center
Sat 09:50:00 PM 37.0716 -121.8520 135° Southeast  Level FlightAware Approximate
Sat 09:50:18 PM 37.4269 -122.3500 139° Southeast 330 380 15,200  Level Oakland Center
Sat 09:51:19 PM 37.3414 -122.2553 139° Southeast 340 391 17,800 2,459 Climbing Oakland Center
Sat 09:52:20 PM 37.2656 -122.1717 139° Southeast 358 412 20,200 1,967 Climbing Oakland Center
Sat 09:53:21 PM 37.1853 -122.0856 139° Southeast 376 433 21,800 1,721 Climbing Oakland Center
Sat 09:54:22 PM 37.1022 -121.9931 138° Southeast 396 456 23,700 1,820 Climbing Oakland Center
Sat 09:55:23 PM 37.0167 -121.8989 139° Southeast 409 471 25,500 1,721 Climbing Oakland Center
Sat 09:56:24 PM 36.9292 -121.8050 139° Southeast 414 476 27,200 1,574 Climbing Oakland Center
Sat 09:57:25 PM 36.8397 -121.7114 140° Southeast 417 480 28,700 1,279 Climbing Oakland Center
Sat 09:58:26 PM 36.7533 -121.6172 139° Southeast 428 493 29,800 1,131 Climbing Oakland Center
Sat 09:59:27 PM 36.6611 -121.5161 139° Southeast 439 505 31,000 1,180 Climbing Oakland Center
Sat 10:00:28 PM 36.5678 -121.4139 139° Southeast 446 513 32,200 984 Climbing Oakland Center
Sat 10:01:29 PM 36.4528 -121.2944 140° Southeast 448 516 33,000 397 Climbing Oakland Center
Sat 10:02:29 PM 36.3556 -121.1903 139° Southeast 460 529 33,000  Level Oakland Center
Sat 10:03:30 PM 36.2556 -121.0828 139° Southeast 469 540 33,000  Level Oakland Center
Sat 10:04:31 PM 36.1556 -120.9775 140° Southeast 472 543 33,000  Level Oakland Center
Sat 10:05:32 PM 36.0567 -120.8717 139° Southeast 472 543 33,000  Level Oakland Center
Sat 10:06:33 PM 35.9583 -120.7675 139° Southeast 470 541 33,000  Level Oakland Center
Sat 10:07:34 PM 35.8600 -120.6628 139° Southeast 469 540 33,000  Level Oakland Center
Sat 10:08:35 PM 35.7614 -120.5594 140° Southeast 468 539 33,000  Level Oakland Center
Sat 10:09:36 PM 35.6619 -120.4558 140° Southeast 468 539 33,000  Level Oakland Center
Sat 10:10:37 PM 35.5631 -120.3514 139° Southeast 467 537 33,000  Level Oakland Center
Sat 10:11:38 PM 35.4708 -120.2564 140° Southeast 467 537 33,000  Level Oakland Center
Sat 10:12:39 PM 35.3597 -120.1392 139° Southeast 468 539 33,000 -387 Level Oakland Center
Sat 10:13:42 PM 35.2586 -120.0350 140° Southeast 468 539 32,200 -1,113 Descending Los Angeles Center
Sat 10:14:43 PM 35.1567 -119.9322 140° Southeast 471 542 30,700 -1,475 Descending Los Angeles Center
Sat 10:15:44 PM 35.0611 -119.8225 137° Southeast 471 542 29,200 -1,610 Descending Los Angeles Center
Sat 10:16:46 PM 34.9567 -119.6800 132° Southeast 471 542 27,400 -1,610 Descending Los Angeles Center
Sat 10:17:47 PM 34.8700 -119.5642 132° Southeast 466 536 25,900 -1,869 Descending Los Angeles Center
Sat 10:18:48 PM 34.7850 -119.4508 132° Southeast 455 524 23,600 -2,803 Descending Los Angeles Center
Sat 10:19:49 PM 34.7047 -119.3411 132° Southeast 441 507 20,200 -3,317 Descending Los Angeles Center
Sat 10:20:51 PM 34.6264 -119.2342 132° Southeast 426 490 16,800 -3,122 Descending Los Angeles Center
Sat 10:21:52 PM 34.5642 -119.1244 125° Southeast 410 472 13,800 -2,754 Descending Los Angeles Center
Sat 10:22:53 PM 34.5056 -119.0125 122° Southeast 387 445 11,200 -1,672 Descending Los Angeles Center
Sat 10:23:54 PM 34.4278 -118.9519 147° Southeast 326 375 10,400 -1,268 Descending Los Angeles Center
Sat 10:24:56 PM 34.3525 -118.8731 139° Southeast 306 352 8,600 -1,610 Descending Los Angeles Center
Sat 10:25:57 PM 34.3008 -118.8011 131° Southeast 285 328 7,100 -1,475 Descending Los Angeles Center
Sat 10:26:58 PM 34.2614 -118.7247 122° Southeast 271 312 5,600 -1,328 Descending Los Angeles Center
Sat 10:27:59 PM 34.2247 -118.6547 122° Southeast 254 292 4,400 -934 Descending Los Angeles Center
Sat 10:29:00 PM 34.2011 -118.5914 114° Southeast 221 254 3,700 -683 Descending Los Angeles Center
Sat 10:30:02 PM 34.1997 -118.5236 91° East 206 237 3,000 -683 Descending Los Angeles Center
Sat 10:31:03 PM 34.1997 -118.4619 90° East 192 221 2,300 -738 Descending Los Angeles Center
Sat 10:32:04 PM 34.1997 -118.4150 90° East 160 184 1,500 -590 Descending Los Angeles Center
Sat 10:33:05 PM 34.1978 -118.3636 93° East 150 173 1,100 -393 Descending Los Angeles Center

Login

Don't have an account? Register now (free) for customized features, flight alerts, and more!